createdAt,value
2023-03-25T00:02:21.778Z,13.15
2023-03-25T00:05:10.620Z,17.55
2023-03-25T00:07:57.283Z,19.80
2023-03-25T00:10:43.543Z,17.67
2023-03-25T00:13:31.672Z,10.80
2023-03-25T00:16:20.013Z,12.85
2023-03-25T00:19:06.643Z,10.13
2023-03-25T00:21:55.577Z,14.27
2023-03-25T00:24:42.402Z,21.13
2023-03-25T00:27:28.812Z,17.50
2023-03-25T00:30:16.563Z,13.18
2023-03-25T00:33:04.485Z,16.05
2023-03-25T00:35:54.488Z,10.38
2023-03-25T00:38:43.054Z,13.20
2023-03-25T00:41:29.742Z,8.90
2023-03-25T00:44:17.169Z,12.20
2023-03-25T00:47:03.690Z,9.65
2023-03-25T00:49:51.667Z,13.52
2023-03-25T00:52:38.435Z,11.80
2023-03-25T00:55:24.945Z,11.77
2023-03-25T00:58:11.232Z,11.98
2023-03-25T01:00:58.423Z,12.38
2023-03-25T01:03:45.464Z,16.08
2023-03-25T01:06:37.006Z,11.38
2023-03-25T01:09:23.170Z,12.48
2023-03-25T01:12:09.687Z,13.20
2023-03-25T01:14:56.644Z,12.32
2023-03-25T01:17:43.402Z,19.23
2023-03-25T01:20:29.867Z,14.23
2023-03-25T01:23:17.653Z,10.75
2023-03-25T01:26:03.844Z,16.13
2023-03-25T01:28:50.125Z,15.70
2023-03-25T01:31:36.798Z,15.90
2023-03-25T01:34:23.835Z,11.63
2023-03-25T01:37:10.256Z,15.38
2023-03-25T01:39:58.049Z,12.95
2023-03-25T01:42:44.412Z,11.55
2023-03-25T01:45:32.919Z,16.13
2023-03-25T01:48:25.197Z,13.20
2023-03-25T01:51:15.709Z,13.45
2023-03-25T01:54:02.843Z,12.98
2023-03-25T01:56:52.220Z,14.60
2023-03-25T01:59:40.262Z,18.00
2023-03-25T02:02:34.830Z,14.82
2023-03-25T02:05:26.719Z,13.57
2023-03-25T02:08:15.740Z,9.68
2023-03-25T02:11:02.193Z,15.77
2023-03-25T02:13:49.813Z,14.20
2023-03-25T02:16:46.415Z,14.88
2023-03-25T02:20:09.009Z,22.35
2023-03-25T02:23:24.059Z,14.20
2023-03-25T02:26:37.450Z,13.52
2023-03-25T02:29:38.123Z,12.35
2023-03-25T02:32:40.908Z,10.48
2023-03-25T02:35:47.554Z,10.25
2023-03-25T02:38:41.684Z,20.02
2023-03-25T02:41:34.053Z,17.52
2023-03-25T02:44:29.004Z,11.00
2023-03-25T02:47:20.933Z,19.00
2023-03-25T02:50:12.632Z,15.75
2023-03-25T02:53:02.370Z,21.27
2023-03-25T02:55:54.016Z,19.73
2023-03-25T02:58:41.715Z,19.77
2023-03-25T03:01:28.376Z,11.77
2023-03-25T03:04:15.542Z,15.73
2023-03-25T03:07:02.014Z,18.10
2023-03-25T03:09:58.335Z,12.85
2023-03-25T03:13:03.480Z,19.98
2023-03-25T03:15:57.638Z,15.93
2023-03-25T03:18:51.828Z,10.80
2023-03-25T03:21:42.045Z,10.52
2023-03-25T03:27:23.670Z,18.13
2023-03-25T03:30:16.987Z,14.55
2023-03-25T03:33:13.431Z,10.35
2023-03-25T03:36:02.118Z,12.93
2023-03-25T03:38:51.280Z,17.77
2023-03-25T03:41:42.338Z,16.37
2023-03-25T03:44:33.958Z,14.60
2023-03-25T03:47:26.077Z,19.23
2023-03-25T03:50:17.336Z,20.17
2023-03-25T03:53:09.233Z,14.57
2023-03-25T03:56:01.867Z,22.00
2023-03-25T03:58:53.132Z,13.95
2023-03-25T04:01:46.210Z,15.60
2023-03-25T04:04:34.856Z,18.30
2023-03-25T04:07:29.229Z,16.58
2023-03-25T04:10:19.682Z,18.17
2023-03-25T04:13:10.689Z,13.68
2023-03-25T04:16:00.191Z,13.38
2023-03-25T04:18:47.753Z,12.13
2023-03-25T04:21:35.414Z,16.08
2023-03-25T04:24:21.925Z,20.95
2023-03-25T04:27:09.569Z,24.85
2023-03-25T04:29:57.575Z,19.83
2023-03-25T04:32:46.897Z,13.65
2023-03-25T04:35:34.103Z,14.13
2023-03-25T04:38:22.422Z,20.80
2023-03-25T04:41:10.986Z,16.58
2023-03-25T04:43:58.301Z,18.42
2023-03-25T04:46:45.068Z,15.25
2023-03-25T04:49:31.385Z,18.77
2023-03-25T04:52:17.748Z,20.88
2023-03-25T04:55:06.209Z,25.13
2023-03-25T04:57:53.935Z,11.25
2023-03-25T05:00:40.429Z,17.52
2023-03-25T05:03:27.108Z,15.10
2023-03-25T05:06:13.207Z,14.65
2023-03-25T05:08:59.629Z,13.88
2023-03-25T05:11:50.447Z,14.32
2023-03-25T05:14:36.661Z,16.60
2023-03-25T05:17:22.986Z,16.45
2023-03-25T05:20:10.608Z,18.65
2023-03-25T05:22:57.616Z,17.25
2023-03-25T05:25:44.494Z,19.40
2023-03-25T05:28:32.232Z,22.35
2023-03-25T05:31:18.759Z,18.60
2023-03-25T05:34:06.662Z,23.80
2023-03-25T05:36:54.171Z,21.00
2023-03-25T05:39:40.643Z,17.95
2023-03-25T05:42:27.391Z,19.05
2023-03-25T05:45:15.806Z,31.67
2023-03-25T05:48:02.096Z,17.40
2023-03-25T05:50:48.458Z,23.48
2023-03-25T05:53:34.830Z,17.55
2023-03-25T05:56:23.002Z,24.30
2023-03-25T05:59:10.332Z,24.20
2023-03-25T06:01:58.197Z,19.40
2023-03-25T06:04:46.603Z,18.88
2023-03-25T06:07:32.976Z,17.77
2023-03-25T06:10:20.829Z,17.83
2023-03-25T06:13:07.196Z,22.13
2023-03-25T06:15:56.432Z,18.55
2023-03-25T06:18:44.018Z,21.88
2023-03-25T06:21:33.717Z,16.10
2023-03-25T06:24:20.073Z,15.82
2023-03-25T06:27:08.097Z,25.70
2023-03-25T06:29:54.753Z,27.30
2023-03-25T06:32:41.568Z,16.50
2023-03-25T06:35:29.641Z,17.60
2023-03-25T06:38:16.540Z,25.88
2023-03-25T06:41:20.911Z,16.60
2023-03-25T06:44:14.405Z,22.27
2023-03-25T06:47:20.562Z,15.95
2023-03-25T06:50:10.952Z,24.90
2023-03-25T06:52:59.054Z,22.33
2023-03-25T06:55:45.895Z,14.80
2023-03-25T06:58:35.176Z,18.55
2023-03-25T07:01:21.988Z,21.17
2023-03-25T07:04:08.656Z,21.33
2023-03-25T07:06:57.676Z,31.73
2023-03-25T07:09:45.688Z,15.38
2023-03-25T07:12:35.506Z,21.52
2023-03-25T07:15:22.274Z,20.08
2023-03-25T07:18:09.047Z,20.88
2023-03-25T07:20:56.145Z,19.98
2023-03-25T07:23:42.795Z,17.30
2023-03-25T07:26:31.176Z,21.48
2023-03-25T07:29:17.565Z,30.95
2023-03-25T07:32:04.248Z,26.08
2023-03-25T07:34:51.253Z,25.42
2023-03-25T07:37:38.062Z,23.20
2023-03-25T07:40:24.685Z,17.55
2023-03-25T07:43:12.386Z,17.58
2023-03-25T07:46:04.499Z,16.58
2023-03-25T07:48:51.163Z,19.67
2023-03-25T07:51:38.236Z,22.58
2023-03-25T07:54:25.516Z,17.52
2023-03-25T07:57:13.464Z,24.13
2023-03-25T08:00:07.666Z,25.73
2023-03-25T08:03:01.708Z,24.85
2023-03-25T08:05:52.199Z,24.30
2023-03-25T08:08:38.961Z,25.00
2023-03-25T08:11:27.371Z,22.58
2023-03-25T08:14:14.320Z,26.35
2023-03-25T08:17:05.366Z,23.73
2023-03-25T08:19:51.861Z,20.67
2023-03-25T08:22:38.328Z,18.90
2023-03-25T08:25:25.634Z,16.92
2023-03-25T08:28:13.411Z,26.98
2023-03-25T08:31:02.468Z,20.17
2023-03-25T08:33:50.375Z,26.83
2023-03-25T08:36:39.530Z,20.55
2023-03-25T08:39:30.014Z,21.02
2023-03-25T08:42:18.058Z,28.17
2023-03-25T08:45:06.332Z,33.47
2023-03-25T08:47:53.159Z,27.70
2023-03-25T08:50:41.019Z,31.38
2023-03-25T08:53:28.392Z,25.92
2023-03-25T08:56:15.012Z,35.97
2023-03-25T08:59:01.738Z,36.25
2023-03-25T09:01:53.886Z,24.45
2023-03-25T09:04:41.958Z,28.67
2023-03-25T09:07:30.298Z,28.30
2023-03-25T09:10:16.987Z,32.63
2023-03-25T09:13:03.998Z,21.55
2023-03-25T09:15:50.837Z,30.63
2023-03-25T09:18:37.687Z,27.60
2023-03-25T09:21:24.039Z,30.42
2023-03-25T09:24:12.631Z,28.83
2023-03-25T09:26:59.000Z,35.58
2023-03-25T09:29:45.926Z,39.60
2023-03-25T09:32:32.634Z,35.92
2023-03-25T09:35:19.391Z,29.15
2023-03-25T09:38:05.831Z,28.02
2023-03-25T09:40:53.941Z,28.02
2023-03-25T09:43:57.488Z,24.90
2023-03-25T09:46:44.860Z,26.15
2023-03-25T09:49:38.896Z,28.02
2023-03-25T09:52:30.237Z,32.00
2023-03-25T09:55:22.313Z,33.58
2023-03-25T09:58:35.446Z,24.83
2023-03-25T10:01:37.762Z,32.20
2023-03-25T10:04:46.348Z,26.25
2023-03-25T10:07:46.052Z,26.90
2023-03-25T10:10:38.012Z,22.73
2023-03-25T10:13:35.106Z,25.10
2023-03-25T10:16:31.460Z,29.73
2023-03-25T10:19:42.513Z,30.13
2023-03-25T10:22:36.470Z,21.58
2023-03-25T10:25:28.508Z,22.65
2023-03-25T10:28:19.796Z,25.58
2023-03-25T10:31:11.709Z,29.35
2023-03-25T10:34:03.289Z,19.98
2023-03-25T10:36:54.940Z,18.42
2023-03-25T10:39:45.319Z,21.02
2023-03-25T10:45:21.363Z,20.35
2023-03-25T10:48:14.191Z,30.40
2023-03-25T10:51:04.736Z,37.45
2023-03-25T10:53:53.196Z,19.75
2023-03-25T10:56:43.406Z,21.13
2023-03-25T10:59:36.024Z,22.77
2023-03-25T11:02:25.282Z,18.70
2023-03-25T11:05:18.992Z,20.42
2023-03-25T11:08:18.528Z,19.70
2023-03-25T11:11:10.791Z,24.70
2023-03-25T11:13:57.446Z,20.85
2023-03-25T11:16:47.316Z,26.27
2023-03-25T11:19:40.136Z,29.42
2023-03-25T11:22:29.434Z,18.40
2023-03-25T11:25:20.636Z,21.38
2023-03-25T11:28:14.658Z,28.08
2023-03-25T11:31:10.002Z,26.80
2023-03-25T11:34:07.541Z,24.98
2023-03-25T11:36:56.700Z,23.52
2023-03-25T11:39:45.462Z,24.08
2023-03-25T11:42:35.315Z,21.13
2023-03-25T11:45:25.660Z,21.97
2023-03-25T11:48:17.558Z,20.40
2023-03-25T11:51:08.054Z,27.08
2023-03-25T11:53:58.350Z,26.98
2023-03-25T11:59:38.673Z,18.02
2023-03-25T12:02:29.825Z,25.65
2023-03-25T12:05:17.506Z,16.60
2023-03-25T12:08:15.128Z,19.75
2023-03-25T12:11:07.417Z,18.75
2023-03-25T12:14:25.086Z,21.17
2023-03-25T12:17:20.003Z,13.90
2023-03-25T12:20:19.778Z,20.35
2023-03-25T12:23:19.863Z,16.13
2023-03-25T12:26:11.822Z,21.55
2023-03-25T12:29:22.414Z,25.92
2023-03-25T12:35:16.096Z,15.43
2023-03-25T12:38:16.805Z,15.43
2023-03-25T12:41:16.541Z,17.67
2023-03-25T12:44:08.657Z,15.77
2023-03-25T12:47:14.292Z,8.20
2023-03-25T12:50:22.891Z,15.70
2023-03-25T12:53:23.478Z,22.05
2023-03-25T12:56:23.818Z,14.68
2023-03-25T12:59:44.107Z,13.48
2023-03-25T13:02:47.219Z,23.60
2023-03-25T13:05:40.163Z,16.08
2023-03-25T13:08:34.963Z,17.95
2023-03-25T13:11:31.726Z,19.20
2023-03-25T13:14:23.577Z,15.18
2023-03-25T13:17:20.301Z,16.05
2023-03-25T13:20:11.384Z,14.35
2023-03-25T13:23:02.246Z,20.13
2023-03-25T13:28:41.250Z,13.23
2023-03-25T13:31:29.582Z,16.98
2023-03-25T13:34:24.126Z,15.07
2023-03-25T13:37:19.338Z,12.93
2023-03-25T13:40:22.465Z,15.70
2023-03-25T13:43:18.269Z,15.38
2023-03-25T13:46:09.218Z,13.82
2023-03-25T13:48:59.332Z,22.20
2023-03-25T13:51:45.790Z,25.02
2023-03-25T13:54:39.002Z,11.02
2023-03-25T13:58:04.235Z,14.05
2023-03-25T14:01:14.248Z,14.85
2023-03-25T14:04:34.932Z,14.82
2023-03-25T14:07:48.710Z,12.95
2023-03-25T14:10:50.991Z,11.40
2023-03-25T14:13:42.720Z,13.10
2023-03-25T14:16:33.819Z,10.77
2023-03-25T14:19:27.121Z,10.32
2023-03-25T14:22:16.998Z,11.23
2023-03-25T14:25:03.335Z,16.38
2023-03-25T14:27:52.275Z,15.93
2023-03-25T14:30:39.943Z,16.23
2023-03-25T14:33:26.525Z,12.27
2023-03-25T14:36:13.115Z,14.15
2023-03-25T14:38:59.798Z,15.00
2023-03-25T14:42:00.561Z,10.00
2023-03-25T14:44:54.365Z,13.15
2023-03-25T14:47:52.367Z,15.07
2023-03-25T14:50:40.899Z,11.73
2023-03-25T14:53:28.435Z,12.77
2023-03-25T14:56:19.298Z,11.85
2023-03-25T14:59:10.796Z,11.27
2023-03-25T15:02:06.105Z,11.70
2023-03-25T15:04:56.213Z,9.57
2023-03-25T15:07:46.272Z,13.25
2023-03-25T15:10:36.602Z,12.60
2023-03-25T15:13:28.142Z,14.55
2023-03-25T15:16:20.536Z,15.68
2023-03-25T15:19:12.697Z,13.07
2023-03-25T15:22:21.739Z,15.23
2023-03-25T15:25:16.208Z,13.13
2023-03-25T15:28:13.442Z,17.35
2023-03-25T15:31:20.013Z,8.93
2023-03-25T15:34:18.669Z,12.43
2023-03-25T15:37:30.338Z,17.33
2023-03-25T15:40:42.069Z,10.25
2023-03-25T15:43:59.470Z,12.27
2023-03-25T15:47:19.910Z,11.07
2023-03-25T15:50:32.217Z,10.63
2023-03-25T15:53:57.780Z,9.50
2023-03-25T15:56:48.176Z,12.68
2023-03-25T15:59:41.619Z,13.55
2023-03-25T16:02:33.871Z,13.63
2023-03-25T16:05:21.284Z,15.80
2023-03-25T16:08:12.349Z,13.95
2023-03-25T16:11:17.634Z,18.25
2023-03-25T16:14:08.266Z,14.15
2023-03-25T16:16:59.955Z,11.55
2023-03-25T16:19:50.399Z,14.20
2023-03-25T16:22:45.669Z,14.95
2023-03-25T16:25:37.826Z,15.15
2023-03-25T16:28:28.993Z,18.05
2023-03-25T16:31:34.809Z,18.15
2023-03-25T16:34:28.716Z,24.15
2023-03-25T16:37:16.235Z,14.55
2023-03-25T16:40:06.978Z,22.58
2023-03-25T16:42:56.074Z,15.05
2023-03-25T16:45:43.883Z,11.20
2023-03-25T16:48:33.452Z,12.48
2023-03-25T16:51:23.624Z,10.57
2023-03-25T16:54:19.230Z,12.30
2023-03-25T16:57:09.150Z,17.13
2023-03-25T16:59:57.700Z,17.00
2023-03-25T17:02:45.852Z,14.93
2023-03-25T17:05:32.320Z,17.30
2023-03-25T17:08:21.253Z,13.75
2023-03-25T17:11:09.877Z,20.85
2023-03-25T17:14:01.204Z,12.85
2023-03-25T17:16:52.747Z,30.23
2023-03-25T17:19:46.744Z,19.80
2023-03-25T17:22:35.147Z,21.13
2023-03-25T17:25:27.446Z,23.60
2023-03-25T17:28:29.270Z,21.55
2023-03-25T17:31:21.808Z,26.95
2023-03-25T17:34:12.878Z,22.65
2023-03-25T17:37:01.162Z,19.13
2023-03-25T17:39:50.047Z,17.05
2023-03-25T17:42:38.141Z,25.75
2023-03-25T17:45:26.117Z,24.02
2023-03-25T17:48:16.090Z,19.10
2023-03-25T17:51:04.411Z,19.05
2023-03-25T17:53:50.929Z,17.85
2023-03-25T17:56:39.587Z,18.42
2023-03-25T19:05:01.055Z,18.15
2023-03-25T19:07:49.363Z,20.38
2023-03-25T19:10:38.400Z,25.13
2023-03-25T19:13:24.751Z,25.25
2023-03-25T19:16:12.080Z,23.80
2023-03-25T19:19:00.536Z,22.60
2023-03-25T19:21:48.004Z,24.90
2023-03-25T19:24:34.383Z,21.55
2023-03-25T19:27:24.343Z,33.20
2023-03-25T19:30:14.801Z,42.97
2023-03-25T19:33:02.090Z,28.77
2023-03-25T19:35:54.267Z,26.45
2023-03-25T19:38:46.189Z,38.15
2023-03-25T19:41:34.728Z,41.25
2023-03-25T19:44:21.233Z,35.28
2023-03-25T19:47:07.812Z,31.38
2023-03-25T19:49:54.126Z,29.92
2023-03-25T19:52:42.464Z,40.35
2023-03-25T19:55:33.350Z,36.95
2023-03-25T19:58:21.704Z,33.42
2023-03-25T20:01:08.569Z,32.67
2023-03-25T20:03:55.414Z,33.22
2023-03-25T20:06:42.161Z,28.20
2023-03-25T20:09:30.259Z,31.45
2023-03-25T20:12:18.173Z,21.52
2023-03-25T20:15:08.001Z,27.58
2023-03-25T20:17:56.474Z,30.13
2023-03-25T20:20:42.866Z,23.33
2023-03-25T20:23:29.028Z,28.88
2023-03-25T20:26:15.875Z,16.20
2023-03-25T20:29:04.484Z,21.10
2023-03-25T20:31:51.426Z,25.75
2023-03-25T20:34:38.905Z,21.85
2023-03-25T20:37:26.640Z,21.58
2023-03-25T20:40:20.761Z,24.42
2023-03-25T20:43:13.090Z,24.70
2023-03-25T20:46:01.049Z,17.95
2023-03-25T20:48:47.441Z,21.80
2023-03-25T20:51:36.222Z,25.70
2023-03-25T20:54:23.198Z,26.77
2023-03-25T20:57:09.772Z,30.15
2023-03-25T20:59:56.734Z,19.60
2023-03-25T21:02:44.984Z,23.00
2023-03-25T21:05:31.460Z,24.40
2023-03-25T21:08:17.866Z,23.00
2023-03-25T21:11:06.930Z,19.73
2023-03-25T21:13:53.776Z,30.17
2023-03-25T21:16:41.675Z,31.38
2023-03-25T21:19:29.479Z,16.33
2023-03-25T21:22:16.511Z,21.02
2023-03-25T21:25:03.064Z,25.42
2023-03-25T21:27:49.630Z,22.77
2023-03-25T21:30:36.069Z,28.08
2023-03-25T21:33:22.470Z,32.92
2023-03-25T21:36:10.637Z,23.17
2023-03-25T21:38:58.930Z,23.00
2023-03-25T21:41:45.335Z,28.00
2023-03-25T21:44:32.687Z,24.77
2023-03-25T21:47:18.873Z,22.98
2023-03-25T21:50:09.324Z,30.48
2023-03-25T21:52:57.765Z,31.15
2023-03-25T21:55:47.800Z,26.20
2023-03-25T21:58:36.539Z,28.80
2023-03-25T22:01:28.429Z,36.03
2023-03-25T22:04:14.941Z,26.33
2023-03-25T22:07:01.368Z,44.22
2023-03-25T22:09:49.189Z,47.53
2023-03-25T22:12:35.735Z,33.17
2023-03-25T22:15:21.789Z,38.35
2023-03-25T22:18:07.999Z,25.67
2023-03-25T22:20:54.497Z,32.97
2023-03-25T22:23:41.836Z,26.85
2023-03-25T22:26:32.238Z,33.97
2023-03-25T22:29:18.863Z,23.40
2023-03-25T22:32:07.154Z,24.50
2023-03-25T22:34:53.567Z,25.42
2023-03-25T22:37:39.780Z,34.13
2023-03-25T22:40:27.059Z,23.20
2023-03-25T22:43:14.725Z,23.15
2023-03-25T22:46:02.757Z,29.60
2023-03-25T22:48:49.259Z,22.95
2023-03-25T22:51:35.701Z,17.85
2023-03-25T22:54:21.955Z,18.42
2023-03-25T22:57:08.335Z,22.00
2023-03-25T22:59:55.888Z,17.48
2023-03-25T23:02:42.834Z,17.10
2023-03-25T23:05:29.530Z,17.73
2023-03-25T23:08:15.865Z,14.13
2023-03-25T23:11:07.430Z,21.42
2023-03-25T23:13:59.825Z,26.42
2023-03-25T23:16:47.673Z,12.05
2023-03-25T23:19:34.312Z,18.35
2023-03-25T23:22:21.614Z,18.67
2023-03-25T23:25:09.543Z,23.60
2023-03-25T23:27:58.053Z,23.20
2023-03-25T23:30:45.567Z,14.30
2023-03-25T23:33:34.339Z,14.23
2023-03-25T23:36:20.685Z,25.65
2023-03-25T23:39:08.675Z,24.65
2023-03-25T23:41:57.139Z,30.38
2023-03-25T23:44:44.329Z,26.05
2023-03-25T23:47:30.838Z,22.00
2023-03-25T23:50:19.333Z,24.50
2023-03-25T23:53:06.157Z,29.08
2023-03-25T23:55:54.912Z,19.25
2023-03-25T23:58:41.762Z,25.10
